Time;durP1;ratioP1;P1;durP2;ratioP2;P2;SDS_P1;SDS_P2;PMS_P1;PMS_P2;Temp;Humidity;BMP_temperature;BMP_pressure;BME280_temperature;BME280_humidity;BME280_pressure;Samples;Min_cycle;Max_cycle;Signal;HPM_P1;HPM_P2
2023/04/21 00:00:07;;;;;;;6.60;5.13;;;;;;;;;;5082088;28;20451;-66
2023/04/21 00:02:38;;;;;;;4.47;2.83;;;;;;;;;;5092008;28;20443;-65
2023/04/21 00:05:06;;;;;;;6.53;4.00;;;;;;;;;;5083996;28;20899;-66
2023/04/21 00:07:33;;;;;;;3.33;2.67;;;;;;;;;;5091760;28;20810;-65
2023/04/21 00:10:00;;;;;;;5.00;3.83;;;;;;;;;;5090789;28;20479;-68
2023/04/21 00:12:27;;;;;;;4.10;3.73;;;;;;;;;;5091889;28;20444;-65
2023/04/21 00:14:54;;;;;;;5.37;3.83;;;;;;;;;;5090469;28;20452;-66
2023/04/21 00:17:22;;;;;;;3.83;3.27;;;;;;;;;;5091815;28;20815;-65
2023/04/21 00:19:50;;;;;;;7.30;4.23;;;;;;;;;;5090222;28;20466;-66
2023/04/21 00:22:17;;;;;;;5.07;4.07;;;;;;;;;;5091497;28;20980;-65
2023/04/21 00:24:45;;;;;;;5.93;3.67;;;;;;;;;;5090747;28;20550;-66
2023/04/21 00:27:12;;;;;;;5.40;3.10;;;;;;;;;;5091475;28;20447;-68
2023/04/21 00:29:39;;;;;;;4.23;3.57;;;;;;;;;;5090644;28;20485;-65
2023/04/21 00:32:08;;;;;;;6.83;4.73;;;;;;;;;;5091341;28;20938;-66
2023/04/21 00:34:37;;;;;;;5.70;3.90;;;;;;;;;;5090190;28;20454;-66
2023/04/21 00:37:04;;;;;;;7.83;5.23;;;;;;;;;;5090385;28;20456;-66
2023/04/21 00:39:31;;;;;;;3.30;3.00;;;;;;;;;;5090964;28;20452;-66
2023/04/21 00:41:58;;;;;;;5.27;3.80;;;;;;;;;;5090299;28;20447;-66
2023/04/21 00:44:25;;;;;;;6.10;5.53;;;;;;;;;;5091037;28;20496;-65
2023/04/21 00:46:53;;;;;;;5.90;4.87;;;;;;;;;;5090231;28;20459;-66
2023/04/21 00:49:20;;;;;;;4.50;3.47;;;;;;;;;;5090667;28;20487;-65
2023/04/21 00:51:48;;;;;;;3.93;3.60;;;;;;;;;;5090468;28;20450;-66
2023/04/21 00:54:15;;;;;;;4.80;4.13;;;;;;;;;;5091167;28;20450;-65
2023/04/21 00:56:43;;;;;;;7.10;4.70;;;;;;;;;;5090363;28;20444;-67
2023/04/21 00:59:10;;;;;;;9.00;5.37;;;;;;;;;;5090402;28;20459;-66
2023/04/21 01:01:38;;;;;;;5.50;4.40;;;;;;;;;;5090880;28;20870;-65
2023/04/21 01:04:06;;;;;;;7.37;4.70;;;;;;;;;;5090599;28;20455;-67
2023/04/21 01:06:33;;;;;;;5.37;4.50;;;;;;;;;;5091010;28;20451;-65
2023/04/21 01:09:03;;;;;;;5.37;3.37;;;;;;;;;;5090004;28;20452;-65
2023/04/21 01:11:30;;;;;;;7.03;4.10;;;;;;;;;;5090992;28;20565;-65
2023/04/21 01:13:58;;;;;;;6.17;5.53;;;;;;;;;;5089893;28;20507;-66
2023/04/21 01:16:25;;;;;;;7.83;4.33;;;;;;;;;;5090849;28;20447;-65
2023/04/21 01:18:53;;;;;;;6.83;3.70;;;;;;;;;;5089653;28;20457;-66
2023/04/21 01:21:20;;;;;;;6.93;4.70;;;;;;;;;;5090856;28;20476;-65
2023/04/21 01:23:49;;;;;;;6.80;3.70;;;;;;;;;;5089935;28;20491;-65
2023/04/21 01:26:18;;;;;;;4.67;3.90;;;;;;;;;;5090307;28;20443;-66
2023/04/21 01:28:46;;;;;;;8.10;3.17;;;;;;;;;;5089575;28;21228;-66
2023/04/21 01:31:14;;;;;;;8.73;4.90;;;;;;;;;;5090707;28;20896;-66
2023/04/21 01:33:42;;;;;;;4.40;2.27;;;;;;;;;;5090241;28;20533;-73
2023/04/21 01:36:09;;;;;;;5.43;3.30;;;;;;;;;;5088146;28;20454;-66
2023/04/21 01:38:38;;;;;;;5.40;3.50;;;;;;;;;;5090099;28;20984;-66
2023/04/21 01:41:07;;;;;;;4.37;2.53;;;;;;;;;;5089663;28;20449;-68
2023/04/21 01:43:34;;;;;;;6.57;4.90;;;;;;;;;;5090458;28;20810;-66
2023/04/21 01:46:01;;;;;;;4.90;2.30;;;;;;;;;;5091420;28;20801;-66
2023/04/21 01:48:28;;;;;;;4.77;4.27;;;;;;;;;;5094097;28;20452;-66
2023/04/21 01:50:55;;;;;;;5.73;4.47;;;;;;;;;;5093500;28;20484;-65
2023/04/21 01:53:22;;;;;;;2.90;2.57;;;;;;;;;;5094457;28;20875;-65
2023/04/21 01:55:49;;;;;;;4.23;3.83;;;;;;;;;;5093460;28;21093;-66
2023/04/21 01:58:18;;;;;;;5.43;3.80;;;;;;;;;;5093781;28;20943;-65
2023/04/21 02:00:45;;;;;;;6.97;4.20;;;;;;;;;;5093548;28;20457;-67
2023/04/21 02:03:12;;;;;;;4.73;3.50;;;;;;;;;;5083376;28;20950;-68
2023/04/21 02:05:39;;;;;;;5.23;4.73;;;;;;;;;;5093877;28;20444;-66
2023/04/21 02:08:06;;;;;;;6.27;4.00;;;;;;;;;;5093061;28;20441;-65
2023/04/21 02:10:34;;;;;;;6.80;4.00;;;;;;;;;;5093508;28;20483;-67
2023/04/21 02:13:01;;;;;;;5.97;3.43;;;;;;;;;;5093643;28;20452;-65
2023/04/21 02:15:29;;;;;;;3.50;2.90;;;;;;;;;;5093920;28;20448;-65
2023/04/21 02:17:56;;;;;;;6.43;3.10;;;;;;;;;;5092834;28;20453;-65
2023/04/21 02:20:23;;;;;;;5.53;3.17;;;;;;;;;;5093594;28;20831;-65
2023/04/21 02:22:50;;;;;;;4.87;3.50;;;;;;;;;;5093117;28;20444;-65
2023/04/21 02:25:18;;;;;;;5.60;4.40;;;;;;;;;;5093704;28;20819;-65
2023/04/21 02:27:46;;;;;;;5.10;3.10;;;;;;;;;;5092924;28;20542;-65
2023/04/21 02:30:13;;;;;;;5.47;3.87;;;;;;;;;;5092947;28;20487;-66
2023/04/21 02:32:41;;;;;;;4.93;3.43;;;;;;;;;;5093580;28;20452;-65
2023/04/21 02:35:09;;;;;;;4.50;3.20;;;;;;;;;;5093293;28;20448;-66
2023/04/21 02:37:36;;;;;;;5.63;4.70;;;;;;;;;;5093041;28;20957;-66
2023/04/21 02:40:04;;;;;;;4.83;4.30;;;;;;;;;;5092923;28;20452;-65
2023/04/21 02:42:33;;;;;;;5.10;3.70;;;;;;;;;;5093353;28;20990;-65
2023/04/21 02:45:00;;;;;;;3.53;2.93;;;;;;;;;;5092790;28;20452;-65
2023/04/21 02:47:27;;;;;;;6.43;3.87;;;;;;;;;;5093454;28;20447;-66
2023/04/21 02:49:56;;;;;;;5.37;3.80;;;;;;;;;;5091465;28;20484;-65
2023/04/21 02:52:23;;;;;;;5.03;4.00;;;;;;;;;;5093243;28;20960;-65
2023/04/21 02:54:50;;;;;;;5.80;4.53;;;;;;;;;;5092371;28;20955;-65
2023/04/21 02:57:17;;;;;;;10.50;4.80;;;;;;;;;;5092424;28;20459;-65
2023/04/21 02:59:44;;;;;;;5.27;3.57;;;;;;;;;;5091809;28;20444;-65
2023/04/21 03:02:11;;;;;;;7.30;4.13;;;;;;;;;;5093013;28;20445;-69
2023/04/21 03:04:39;;;;;;;2.40;2.13;;;;;;;;;;5092923;28;20440;-65
2023/04/21 03:07:12;;;;;;;3.60;3.10;;;;;;;;;;5092360;28;20444;-66
2023/04/21 03:09:39;;;;;;;5.30;4.90;;;;;;;;;;5092330;28;20442;-65
2023/04/21 03:12:06;;;;;;;6.10;4.67;;;;;;;;;;5092108;28;20536;-66
2023/04/21 03:14:33;;;;;;;4.77;3.00;;;;;;;;;;5092879;28;20452;-65
2023/04/21 03:17:00;;;;;;;5.47;4.93;;;;;;;;;;5092157;28;20445;-65
2023/04/21 03:19:28;;;;;;;4.17;2.53;;;;;;;;;;5092208;28;20456;-66
2023/04/21 03:21:55;;;;;;;5.10;4.30;;;;;;;;;;5091363;28;20478;-65
2023/04/21 03:24:24;;;;;;;6.13;3.40;;;;;;;;;;5092786;28;20440;-65
2023/04/21 03:26:51;;;;;;;4.53;3.90;;;;;;;;;;5091927;28;20478;-65
2023/04/21 03:29:19;;;;;;;4.20;3.80;;;;;;;;;;5091815;28;20464;-65
2023/04/21 03:31:46;;;;;;;4.70;4.17;;;;;;;;;;5091459;28;20480;-65
2023/04/21 03:34:13;;;;;;;4.33;3.30;;;;;;;;;;5092018;28;20511;-65
2023/04/21 03:36:40;;;;;;;6.73;4.70;;;;;;;;;;5092304;28;20451;-65
2023/04/21 03:39:07;;;;;;;3.43;2.20;;;;;;;;;;5091801;28;20444;-65
2023/04/21 03:41:36;;;;;;;6.17;4.10;;;;;;;;;;5092348;28;20455;-65
2023/04/21 03:44:03;;;;;;;6.90;5.70;;;;;;;;;;5091844;28;20440;-65
2023/04/21 03:46:30;;;;;;;6.27;3.43;;;;;;;;;;5091778;28;20449;-68
2023/04/21 03:48:57;;;;;;;3.40;3.10;;;;;;;;;;5091364;28;20453;-65
2023/04/21 03:51:26;;;;;;;7.03;2.77;;;;;;;;;;5091800;28;20492;-65
2023/04/21 03:53:53;;;;;;;2.50;2.00;;;;;;;;;;5091421;28;20441;-65
2023/04/21 03:56:20;;;;;;;8.10;3.50;;;;;;;;;;5092176;28;20823;-65
2023/04/21 03:58:49;;;;;;;3.40;3.10;;;;;;;;;;5090489;28;20923;-67
2023/04/21 04:01:16;;;;;;;2.57;2.37;;;;;;;;;;5091947;28;20440;-65
2023/04/21 04:03:43;;;;;;;6.57;3.60;;;;;;;;;;5091450;28;20527;-65
2023/04/21 04:06:10;;;;;;;4.10;2.80;;;;;;;;;;5091842;28;20448;-65
2023/04/21 04:08:37;;;;;;;8.93;2.60;;;;;;;;;;5091236;28;20449;-65
2023/04/21 04:11:04;;;;;;;4.60;3.97;;;;;;;;;;5091517;28;20465;-65
2023/04/21 04:13:31;;;;;;;3.07;2.80;;;;;;;;;;5091530;28;20455;-65
2023/04/21 04:16:00;;;;;;;4.70;2.97;;;;;;;;;;5090950;28;20526;-65
2023/04/21 04:18:27;;;;;;;3.53;3.23;;;;;;;;;;5090488;28;20463;-65
2023/04/21 04:20:54;;;;;;;4.00;3.60;;;;;;;;;;5090424;28;20486;-65
2023/04/21 04:23:21;;;;;;;6.40;3.97;;;;;;;;;;5091336;28;20451;-64
2023/04/21 04:25:50;;;;;;;5.37;4.07;;;;;;;;;;5090563;28;20456;-67
2023/04/21 04:28:17;;;;;;;3.80;3.40;;;;;;;;;;5091130;28;20459;-65
2023/04/21 04:30:44;;;;;;;9.80;4.40;;;;;;;;;;5090604;28;20486;-65
2023/04/21 04:33:13;;;;;;;5.27;4.73;;;;;;;;;;5091689;28;20793;-67
2023/04/21 04:35:40;;;;;;;4.90;3.90;;;;;;;;;;5091723;28;20435;-65
2023/04/21 04:38:07;;;;;;;4.43;4.00;;;;;;;;;;5090656;28;20970;-65
2023/04/21 04:40:34;;;;;;;5.20;3.80;;;;;;;;;;5091280;28;20455;-65
2023/04/21 04:43:02;;;;;;;4.10;3.17;;;;;;;;;;5090855;28;20751;-65
2023/04/21 04:45:31;;;;;;;3.83;3.20;;;;;;;;;;5091180;28;20448;-65
2023/04/21 04:47:59;;;;;;;6.97;3.70;;;;;;;;;;5090087;28;20456;-65
2023/04/21 04:50:27;;;;;;;4.03;3.63;;;;;;;;;;5103780;28;20816;-65
2023/04/21 04:52:55;;;;;;;2.90;2.60;;;;;;;;;;5091195;28;20484;-65
2023/04/21 04:55:22;;;;;;;2.83;2.37;;;;;;;;;;5091240;28;20469;-65
2023/04/21 04:57:49;;;;;;;3.77;1.73;;;;;;;;;;5090159;28;20449;-65
2023/04/21 05:00:17;;;;;;;4.97;4.27;;;;;;;;;;5090929;28;20448;-65
2023/04/21 05:02:44;;;;;;;8.47;3.00;;;;;;;;;;5090163;28;20451;-65
2023/04/21 05:05:11;;;;;;;6.13;3.30;;;;;;;;;;5091184;28;20449;-65
2023/04/21 05:07:39;;;;;;;4.63;3.43;;;;;;;;;;5091106;28;20455;-65
2023/04/21 05:10:07;;;;;;;4.07;2.90;;;;;;;;;;5090658;28;20932;-65
2023/04/21 05:12:34;;;;;;;5.90;3.73;;;;;;;;;;5090486;28;20998;-64
2023/04/21 05:15:01;;;;;;;3.97;3.57;;;;;;;;;;5090179;28;20442;-65
2023/04/21 05:17:29;;;;;;;8.50;6.17;;;;;;;;;;5090644;28;20454;-65
2023/04/21 05:19:56;;;;;;;5.43;3.93;;;;;;;;;;5089752;28;20826;-65
2023/04/21 05:22:24;;;;;;;4.70;2.70;;;;;;;;;;5094657;28;20456;-65
2023/04/21 05:24:53;;;;;;;5.03;4.53;;;;;;;;;;5094011;28;20458;-65
2023/04/21 05:27:20;;;;;;;4.30;3.90;;;;;;;;;;5094440;28;20449;-65
2023/04/21 05:29:47;;;;;;;4.13;3.17;;;;;;;;;;5093271;28;20447;-68
2023/04/21 05:32:14;;;;;;;7.33;4.90;;;;;;;;;;5094630;28;20484;-65
2023/04/21 05:34:41;;;;;;;6.13;3.53;;;;;;;;;;5094972;28;20448;-67
2023/04/21 05:37:11;;;;;;;7.00;4.77;;;;;;;;;;5094699;28;20499;-65
2023/04/21 05:39:38;;;;;;;4.20;3.70;;;;;;;;;;5094886;28;20564;-65
2023/04/21 05:42:06;;;;;;;7.33;4.10;;;;;;;;;;5094104;28;20455;-66
2023/04/21 05:44:33;;;;;;;6.50;3.23;;;;;;;;;;5094572;28;20447;-66
2023/04/21 05:47:00;;;;;;;6.50;4.30;;;;;;;;;;5093652;28;20456;-65
2023/04/21 05:49:27;;;;;;;5.63;5.10;;;;;;;;;;5093949;28;20927;-65
2023/04/21 05:51:55;;;;;;;8.50;4.17;;;;;;;;;;5094044;28;20487;-66
2023/04/21 05:54:22;;;;;;;7.27;5.77;;;;;;;;;;5093903;28;20819;-67
2023/04/21 05:56:49;;;;;;;6.70;4.23;;;;;;;;;;5093904;28;20463;-65
2023/04/21 05:59:17;;;;;;;8.37;4.80;;;;;;;;;;5093369;28;20445;-65
2023/04/21 06:01:44;;;;;;;8.50;4.63;;;;;;;;;;5093806;28;20456;-66
2023/04/21 06:04:12;;;;;;;8.67;5.37;;;;;;;;;;5094194;28;20456;-68
2023/04/21 06:06:39;;;;;;;6.97;3.83;;;;;;;;;;5094389;28;20472;-66
2023/04/21 06:09:06;;;;;;;6.40;5.20;;;;;;;;;;5093232;28;20448;-67
2023/04/21 06:11:34;;;;;;;5.23;4.03;;;;;;;;;;5093616;28;20529;-68
2023/04/21 06:14:01;;;;;;;4.13;2.90;;;;;;;;;;5093387;28;20535;-66
2023/04/21 06:16:32;;;;;;;6.93;4.40;;;;;;;;;;5093369;28;20444;-65
2023/04/21 06:18:59;;;;;;;9.43;6.07;;;;;;;;;;5092407;28;20947;-65
2023/04/21 06:21:27;;;;;;;7.90;5.53;;;;;;;;;;5093671;28;20468;-65
2023/04/21 06:23:54;;;;;;;8.37;4.43;;;;;;;;;;5092971;28;20444;-65
2023/04/21 06:26:21;;;;;;;8.77;4.70;;;;;;;;;;5093080;28;20441;-65
2023/04/21 06:28:48;;;;;;;7.43;5.50;;;;;;;;;;5092683;28;20808;-65
2023/04/21 06:31:16;;;;;;;9.63;5.67;;;;;;;;;;5093584;28;20480;-65
2023/04/21 06:33:44;;;;;;;9.37;5.17;;;;;;;;;;5091788;28;20505;-65
2023/04/21 06:36:12;;;;;;;11.17;5.30;;;;;;;;;;5093768;28;20449;-68
2023/04/21 06:38:41;;;;;;;8.27;6.07;;;;;;;;;;5092942;28;20959;-64
2023/04/21 06:41:09;;;;;;;10.37;5.67;;;;;;;;;;5093402;28;20456;-65
2023/04/21 06:43:36;;;;;;;8.87;5.80;;;;;;;;;;5092354;28;20445;-66
2023/04/21 06:46:03;;;;;;;7.33;3.87;;;;;;;;;;5092223;28;20445;-65
2023/04/21 06:48:30;;;;;;;13.43;6.07;;;;;;;;;;5091068;28;20475;-64
2023/04/21 06:51:01;;;;;;;11.23;5.73;;;;;;;;;;5092358;28;20970;-65
2023/04/21 06:53:28;;;;;;;11.00;5.70;;;;;;;;;;5087977;28;20454;-64
2023/04/21 06:55:55;;;;;;;9.07;6.40;;;;;;;;;;5089884;28;20441;-65
2023/04/21 06:58:22;;;;;;;8.47;6.43;;;;;;;;;;5092781;28;20535;-65
2023/04/21 07:00:50;;;;;;;6.90;4.50;;;;;;;;;;5092361;28;20453;-65
2023/04/21 07:03:17;;;;;;;7.77;5.93;;;;;;;;;;5093168;28;20460;-65
2023/04/21 07:05:44;;;;;;;8.30;5.27;;;;;;;;;;5092207;28;20447;-65
2023/04/21 07:08:13;;;;;;;10.40;4.10;;;;;;;;;;5092008;28;20527;-69
2023/04/21 07:10:40;;;;;;;7.57;4.77;;;;;;;;;;5091673;28;20875;-65
2023/04/21 07:13:07;;;;;;;10.43;5.30;;;;;;;;;;5085083;28;20483;-64
2023/04/21 07:15:34;;;;;;;6.90;4.53;;;;;;;;;;5092729;28;20449;-65
2023/04/21 07:18:01;;;;;;;8.00;4.70;;;;;;;;;;5092020;28;20713;-64
2023/04/21 07:20:28;;;;;;;8.10;5.87;;;;;;;;;;5091931;28;20479;-66
2023/04/21 07:22:56;;;;;;;8.47;5.43;;;;;;;;;;5092437;28;20448;-66
2023/04/21 07:25:24;;;;;;;12.63;7.00;;;;;;;;;;5078805;28;20932;-65
2023/04/21 07:27:51;;;;;;;10.77;4.87;;;;;;;;;;5091466;28;20735;-66
2023/04/21 07:30:18;;;;;;;9.37;6.10;;;;;;;;;;5092025;28;20972;-66
2023/04/21 07:32:46;;;;;;;8.13;6.40;;;;;;;;;;5091580;28;20581;-66
2023/04/21 07:35:13;;;;;;;9.53;6.10;;;;;;;;;;5092631;28;20445;-68
2023/04/21 07:37:40;;;;;;;12.13;5.20;;;;;;;;;;5091926;28;20452;-67
2023/04/21 07:40:08;;;;;;;9.00;6.37;;;;;;;;;;5092579;28;20449;-67
2023/04/21 07:42:36;;;;;;;7.07;4.27;;;;;;;;;;5092019;28;20805;-67
2023/04/21 07:45:04;;;;;;;10.90;5.30;;;;;;;;;;5091331;28;20448;-67
2023/04/21 07:47:31;;;;;;;7.67;4.43;;;;;;;;;;5091838;28;20445;-65
2023/04/21 07:49:58;;;;;;;9.90;5.50;;;;;;;;;;5091394;28;20630;-66
2023/04/21 07:52:25;;;;;;;9.83;8.00;;;;;;;;;;5091907;28;20480;-66
2023/04/21 07:54:53;;;;;;;12.13;5.60;;;;;;;;;;5091459;28;20801;-63
2023/04/21 07:57:20;;;;;;;7.50;5.63;;;;;;;;;;5091641;28;20456;-65
2023/04/21 07:59:48;;;;;;;9.00;5.00;;;;;;;;;;5091118;28;20940;-66
2023/04/21 08:02:15;;;;;;;8.67;5.23;;;;;;;;;;5091800;28;20460;-66
2023/04/21 08:04:42;;;;;;;10.53;5.00;;;;;;;;;;5091132;28;20964;-72
2023/04/21 08:07:12;;;;;;;10.30;4.50;;;;;;;;;;5091625;28;20448;-65
2023/04/21 08:09:39;;;;;;;7.43;5.37;;;;;;;;;;5091601;28;20450;-66
2023/04/21 08:12:06;;;;;;;6.00;3.40;;;;;;;;;;5090815;28;20476;-67
2023/04/21 08:14:33;;;;;;;7.47;5.40;;;;;;;;;;5091349;28;20453;-66
2023/04/21 08:17:02;;;;;;;7.10;4.60;;;;;;;;;;5090715;28;20441;-65
2023/04/21 08:19:29;;;;;;;6.80;3.90;;;;;;;;;;5091931;28;20560;-71
2023/04/21 08:21:57;;;;;;;7.00;3.27;;;;;;;;;;5091278;28;20484;-64
2023/04/21 08:24:24;;;;;;;6.20;3.63;;;;;;;;;;5092483;28;20945;-62
2023/04/21 08:26:51;;;;;;;7.30;4.30;;;;;;;;;;5091022;28;20455;-63
2023/04/21 08:29:18;;;;;;;5.47;4.37;;;;;;;;;;5091130;28;20448;-64
2023/04/21 08:31:45;;;;;;;7.47;4.80;;;;;;;;;;5090728;28;20480;-64
2023/04/21 08:34:14;;;;;;;6.93;3.67;;;;;;;;;;5091470;28;20448;-65
2023/04/21 08:36:41;;;;;;;9.00;5.13;;;;;;;;;;5091442;28;20524;-64
2023/04/21 08:39:09;;;;;;;8.70;3.80;;;;;;;;;;5091396;28;20455;-63
2023/04/21 08:41:39;;;;;;;4.50;3.00;;;;;;;;;;5090941;28;20449;-66
2023/04/21 08:44:06;;;;;;;8.07;5.10;;;;;;;;;;5091146;28;20744;-66
2023/04/21 08:46:34;;;;;;;6.20;3.70;;;;;;;;;;5091274;28;20459;-69
2023/04/21 08:49:01;;;;;;;6.97;3.73;;;;;;;;;;5090644;28;20453;-68
2023/04/21 08:51:30;;;;;;;7.97;3.83;;;;;;;;;;5090845;28;20447;-67
2023/04/21 08:53:57;;;;;;;6.23;4.73;;;;;;;;;;5090744;28;20441;-69
2023/04/21 08:56:25;;;;;;;6.23;4.13;;;;;;;;;;5090519;28;20448;-69
2023/04/21 08:58:52;;;;;;;5.30;3.57;;;;;;;;;;5089951;28;20478;-69
2023/04/21 09:01:19;;;;;;;4.33;2.93;;;;;;;;;;5091033;28;20464;-69
2023/04/21 09:03:46;;;;;;;7.67;4.60;;;;;;;;;;5091968;28;20527;-68
2023/04/21 09:06:13;;;;;;;6.93;4.37;;;;;;;;;;5091073;28;20447;-68
2023/04/21 09:08:44;;;;;;;7.50;4.03;;;;;;;;;;5090720;28;20448;-68
2023/04/21 09:11:14;;;;;;;5.73;3.90;;;;;;;;;;5091023;28;20443;-69
2023/04/21 09:13:43;;;;;;;6.20;3.80;;;;;;;;;;5091171;28;20923;-69
2023/04/21 09:16:16;;;;;;;5.00;3.20;;;;;;;;;;5091323;28;20479;-69
2023/04/21 09:18:43;;;;;;;6.43;3.97;;;;;;;;;;5090176;28;20506;-67
2023/04/21 09:21:11;;;;;;;6.27;2.90;;;;;;;;;;5091067;28;20481;-67
2023/04/21 09:23:44;;;;;;;7.10;3.83;;;;;;;;;;5091095;28;20456;-68
2023/04/21 09:26:11;;;;;;;5.00;4.00;;;;;;;;;;5090964;28;20451;-66
2023/04/21 09:28:41;;;;;;;11.93;3.90;;;;;;;;;;5090727;28;20466;-67
2023/04/21 09:31:14;;;;;;;7.27;3.60;;;;;;;;;;5091261;28;20440;-65
2023/04/21 09:33:44;;;;;;;10.00;6.10;;;;;;;;;;5091484;28;20465;-66
2023/04/21 09:36:18;;;;;;;5.37;4.07;;;;;;;;;;5091547;28;20448;-67
2023/04/21 09:38:49;;;;;;;4.40;3.70;;;;;;;;;;5090122;28;20436;-66
2023/04/21 09:41:17;;;;;;;4.90;3.10;;;;;;;;;;5091162;28;20428;-66
2023/04/21 09:43:44;;;;;;;4.70;3.87;;;;;;;;;;5090896;28;20788;-66
2023/04/21 09:46:12;;;;;;;4.27;2.80;;;;;;;;;;5090849;28;20449;-68
2023/04/21 09:48:41;;;;;;;5.13;3.50;;;;;;;;;;5090516;28;20463;-66
2023/04/21 09:51:09;;;;;;;3.70;2.97;;;;;;;;;;5090714;28;20802;-66
2023/04/21 09:53:38;;;;;;;4.20;3.33;;;;;;;;;;5090768;28;20488;-67
2023/04/21 09:56:11;;;;;;;4.37;2.80;;;;;;;;;;5090565;28;20528;-66
2023/04/21 09:58:41;;;;;;;4.33;3.30;;;;;;;;;;5090435;28;20467;-66
2023/04/21 10:01:09;;;;;;;5.17;3.57;;;;;;;;;;5091260;28;20449;-66
2023/04/21 10:03:39;;;;;;;3.10;2.33;;;;;;;;;;5090593;28;20948;-65
2023/04/21 10:18:52;;;;;;;3.57;2.93;;;;;;;;;;5108992;27;20776;-67
2023/04/21 10:21:21;;;;;;;6.33;3.50;;;;;;;;;;5103605;28;20768;-75
2023/04/21 10:23:48;;;;;;;4.00;2.77;;;;;;;;;;5108111;28;20489;-68
2023/04/21 10:26:17;;;;;;;2.83;2.30;;;;;;;;;;5107816;28;20453;-68
2023/04/21 10:28:46;;;;;;;3.40;3.10;;;;;;;;;;5107872;28;20455;-68
2023/04/21 10:31:20;;;;;;;3.70;2.80;;;;;;;;;;5107664;28;20466;-70
2023/04/21 10:34:05;;;;;;;5.20;3.00;;;;;;;;;;5108213;28;20808;-71
2023/04/21 10:36:34;;;;;;;3.33;2.47;;;;;;;;;;5107455;28;20570;-71
2023/04/21 10:39:02;;;;;;;4.27;3.37;;;;;;;;;;5107802;28;20440;-68
2023/04/21 10:41:30;;;;;;;6.03;2.50;;;;;;;;;;5106355;28;20432;-67
2023/04/21 10:43:58;;;;;;;5.00;3.17;;;;;;;;;;5107812;28;20458;-67
2023/04/21 10:46:32;;;;;;;4.20;3.20;;;;;;;;;;5104919;28;20459;-67
2023/04/21 10:49:05;;;;;;;3.60;3.20;;;;;;;;;;5107784;28;20496;-66
2023/04/21 10:51:32;;;;;;;4.13;2.83;;;;;;;;;;5106892;28;20435;-67
2023/04/21 10:54:01;;;;;;;4.77;2.20;;;;;;;;;;5107473;28;20997;-67
2023/04/21 10:56:29;;;;;;;4.80;3.50;;;;;;;;;;5106724;28;20472;-68
2023/04/21 10:58:56;;;;;;;4.97;3.27;;;;;;;;;;5107538;28;20459;-68
2023/04/21 11:01:23;;;;;;;4.43;2.67;;;;;;;;;;5106617;28;21143;-69
2023/04/21 11:03:50;;;;;;;3.83;2.77;;;;;;;;;;5107576;28;20440;-68
2023/04/21 11:06:18;;;;;;;4.03;3.40;;;;;;;;;;5107607;28;20448;-71
2023/04/21 11:08:57;;;;;;;4.90;3.70;;;;;;;;;;5106057;28;20436;-67
2023/04/21 11:11:25;;;;;;;4.57;2.87;;;;;;;;;;5106025;28;20462;-69
2023/04/21 11:13:53;;;;;;;4.37;3.37;;;;;;;;;;5106942;28;20444;-70
2023/04/21 11:16:20;;;;;;;3.50;2.50;;;;;;;;;;5106870;28;20459;-74
2023/04/21 11:18:48;;;;;;;4.13;3.30;;;;;;;;;;5097942;28;20495;-68
2023/04/21 11:21:18;;;;;;;4.93;3.67;;;;;;;;;;5094645;28;20444;-71
2023/04/21 11:23:49;;;;;;;3.50;2.40;;;;;;;;;;5093752;28;20506;-68
2023/04/21 11:26:16;;;;;;;3.20;2.73;;;;;;;;;;5092229;28;20456;-68
2023/04/21 11:28:48;;;;;;;4.73;3.20;;;;;;;;;;5092221;28;20455;-68
2023/04/21 11:31:15;;;;;;;3.03;2.50;;;;;;;;;;5092010;28;20528;-69
2023/04/21 11:33:42;;;;;;;4.13;2.90;;;;;;;;;;5085547;28;20449;-68
2023/04/21 11:36:09;;;;;;;3.77;2.53;;;;;;;;;;5093794;28;20797;-69
2023/04/21 11:38:40;;;;;;;4.37;2.87;;;;;;;;;;5091513;28;20476;-69
2023/04/21 11:41:08;;;;;;;4.50;3.00;;;;;;;;;;5088454;28;20455;-68
2023/04/21 11:43:35;;;;;;;3.27;2.60;;;;;;;;;;5092127;28;20949;-69
2023/04/21 11:46:13;;;;;;;5.30;2.83;;;;;;;;;;5094291;28;20437;-69
2023/04/21 11:48:40;;;;;;;3.93;3.10;;;;;;;;;;5088682;28;20454;-74
2023/04/21 11:51:14;;;;;;;4.90;3.30;;;;;;;;;;5092491;28;20460;-69
2023/04/21 11:53:41;;;;;;;3.30;2.57;;;;;;;;;;5092205;28;20436;-71
2023/04/21 11:56:10;;;;;;;3.70;2.90;;;;;;;;;;5092443;28;20964;-69
2023/04/21 11:58:38;;;;;;;2.63;2.33;;;;;;;;;;5092438;28;20475;-71
2023/04/21 12:01:08;;;;;;;4.50;2.67;;;;;;;;;;5092256;28;20459;-68
2023/04/21 12:03:36;;;;;;;3.37;2.33;;;;;;;;;;5091737;28;20436;-68
2023/04/21 12:06:05;;;;;;;3.17;2.33;;;;;;;;;;5092272;28;20449;-71
2023/04/21 12:08:32;;;;;;;3.63;3.00;;;;;;;;;;5091978;28;20461;-68
2023/04/21 12:11:00;;;;;;;3.43;2.50;;;;;;;;;;5091927;28;20441;-67
2023/04/21 12:13:28;;;;;;;4.93;3.10;;;;;;;;;;5091864;28;20441;-68
2023/04/21 12:15:55;;;;;;;4.70;2.90;;;;;;;;;;5092075;28;20441;-69
2023/04/21 12:18:22;;;;;;;2.63;2.20;;;;;;;;;;5091325;28;20488;-75
2023/04/21 12:20:51;;;;;;;2.93;2.10;;;;;;;;;;5091547;28;20948;-68
2023/04/21 12:23:19;;;;;;;3.40;2.23;;;;;;;;;;5092404;28;20531;-68
2023/04/21 12:25:46;;;;;;;2.50;2.30;;;;;;;;;;5091452;28;20498;-69
2023/04/21 12:28:16;;;;;;;2.77;2.13;;;;;;;;;;5092414;28;20460;-68
2023/04/21 12:30:44;;;;;;;4.43;2.63;;;;;;;;;;5089918;28;20929;-68
2023/04/21 12:33:11;;;;;;;3.73;2.67;;;;;;;;;;5092143;28;20453;-68
2023/04/21 12:35:38;;;;;;;3.40;2.63;;;;;;;;;;5077815;28;20447;-69
2023/04/21 12:38:07;;;;;;;3.30;2.50;;;;;;;;;;5092073;28;20484;-69
2023/04/21 12:40:34;;;;;;;4.33;2.37;;;;;;;;;;5090775;28;20497;-68
2023/04/21 12:43:01;;;;;;;2.67;2.47;;;;;;;;;;5091775;28;20447;-69
2023/04/21 12:45:30;;;;;;;3.57;2.30;;;;;;;;;;5091165;28;20810;-69
2023/04/21 12:47:58;;;;;;;2.40;1.97;;;;;;;;;;5088945;28;20472;-69
2023/04/21 12:50:25;;;;;;;4.60;2.77;;;;;;;;;;5091477;28;20437;-69
2023/04/21 12:52:54;;;;;;;3.23;2.20;;;;;;;;;;5091685;28;20451;-68
2023/04/21 12:55:22;;;;;;;3.20;1.93;;;;;;;;;;5091741;28;20557;-77
2023/04/21 12:57:51;;;;;;;2.83;1.87;;;;;;;;;;5091180;28;20476;-70
2023/04/21 13:00:18;;;;;;;3.97;2.00;;;;;;;;;;5091501;28;20445;-69
2023/04/21 13:02:46;;;;;;;2.37;1.93;;;;;;;;;;5090942;28;20455;-68
2023/04/21 13:05:13;;;;;;;2.93;2.27;;;;;;;;;;5091497;28;20444;-68
2023/04/21 13:07:41;;;;;;;2.40;2.20;;;;;;;;;;5085679;28;20460;-68
2023/04/21 13:10:08;;;;;;;2.50;1.90;;;;;;;;;;5086032;28;20443;-71
2023/04/21 13:12:37;;;;;;;2.27;2.07;;;;;;;;;;5090203;28;20440;-68
2023/04/21 13:15:04;;;;;;;2.33;1.83;;;;;;;;;;5091219;28;20444;-70
2023/04/21 13:17:32;;;;;;;2.30;2.10;;;;;;;;;;5090010;28;20499;-68
2023/04/21 13:19:59;;;;;;;2.20;2.00;;;;;;;;;;5088365;28;20952;-68
2023/04/21 13:22:27;;;;;;;3.10;1.67;;;;;;;;;;5089881;28;20536;-66
2023/04/21 13:24:54;;;;;;;2.23;1.77;;;;;;;;;;5091121;28;20492;-67
2023/04/21 13:27:21;;;;;;;2.20;2.00;;;;;;;;;;5090689;28;20445;-72
2023/04/21 13:29:49;;;;;;;2.60;2.07;;;;;;;;;;5091399;28;20792;-67
2023/04/21 13:32:17;;;;;;;2.40;1.80;;;;;;;;;;5077739;28;20433;-67
2023/04/21 13:34:44;;;;;;;2.20;1.53;;;;;;;;;;5090382;28;20441;-68
2023/04/21 13:37:14;;;;;;;4.43;2.00;;;;;;;;;;5091921;28;20449;-68
2023/04/21 13:39:42;;;;;;;1.60;1.50;;;;;;;;;;5090515;28;20442;-68
2023/04/21 13:42:09;;;;;;;2.20;1.97;;;;;;;;;;5090569;28;20449;-68
2023/04/21 13:44:36;;;;;;;3.17;2.17;;;;;;;;;;5091222;28;20448;-68
2023/04/21 13:47:05;;;;;;;2.13;1.77;;;;;;;;;;5091206;28;20453;-68
2023/04/21 13:49:32;;;;;;;2.80;1.97;;;;;;;;;;5091152;28;20451;-68
2023/04/21 13:51:59;;;;;;;2.40;2.20;;;;;;;;;;5087894;28;20451;-72
2023/04/21 13:54:26;;;;;;;2.67;1.50;;;;;;;;;;5085635;28;20461;-70
2023/04/21 13:56:54;;;;;;;2.27;2.07;;;;;;;;;;5088235;28;20455;-72
2023/04/21 13:59:21;;;;;;;1.63;1.50;;;;;;;;;;5087823;28;20506;-73
2023/04/21 14:01:48;;;;;;;3.80;2.40;;;;;;;;;;5087104;28;20456;-72
2023/04/21 14:04:16;;;;;;;3.90;2.03;;;;;;;;;;5088065;28;20463;-72
2023/04/21 14:06:44;;;;;;;1.70;1.60;;;;;;;;;;5087572;28;20441;-72
2023/04/21 14:09:11;;;;;;;3.03;1.77;;;;;;;;;;5087792;28;20457;-72
2023/04/21 14:11:39;;;;;;;2.20;1.83;;;;;;;;;;5084841;28;20445;-72
2023/04/21 14:14:06;;;;;;;1.60;1.50;;;;;;;;;;5088218;28;21204;-72
2023/04/21 14:16:33;;;;;;;2.20;1.43;;;;;;;;;;5086801;28;20456;-72
2023/04/21 14:19:00;;;;;;;2.43;1.33;;;;;;;;;;5087709;28;21260;-72
2023/04/21 14:21:29;;;;;;;3.30;1.40;;;;;;;;;;5086996;28;20878;-72
2023/04/21 14:23:56;;;;;;;2.50;1.37;;;;;;;;;;5088051;28;20444;-72
2023/04/21 14:26:23;;;;;;;3.37;1.43;;;;;;;;;;5087611;28;20791;-73
2023/04/21 14:28:50;;;;;;;2.10;1.60;;;;;;;;;;5087254;28;20487;-72
2023/04/21 14:31:17;;;;;;;1.80;1.70;;;;;;;;;;5087705;28;20597;-72
2023/04/21 14:33:44;;;;;;;1.83;1.50;;;;;;;;;;5086976;28;20448;-73
2023/04/21 14:36:11;;;;;;;1.90;1.70;;;;;;;;;;5085586;28;20455;-72
2023/04/21 14:38:41;;;;;;;2.20;1.53;;;;;;;;;;5086746;28;20477;-73
2023/04/21 14:41:09;;;;;;;2.03;1.60;;;;;;;;;;5086449;28;20464;-73
2023/04/21 14:43:36;;;;;;;2.23;1.70;;;;;;;;;;5073730;28;20579;-73
2023/04/21 14:46:03;;;;;;;2.00;1.60;;;;;;;;;;5088125;28;20479;-72
2023/04/21 14:48:30;;;;;;;4.57;3.07;;;;;;;;;;5087058;28;20974;-73
2023/04/21 14:50:57;;;;;;;4.27;3.60;;;;;;;;;;5087361;28;20923;-72
2023/04/21 14:53:25;;;;;;;1.30;1.00;;;;;;;;;;5088054;28;20444;-73
2023/04/21 14:55:53;;;;;;;1.47;1.20;;;;;;;;;;5091791;28;20452;-72
2023/04/21 14:58:20;;;;;;;1.75;1.52;;;;;;;;;;5091343;28;20304;-73